• Join FlightAware (Why Join?)
  • Login
  • US Flag 
02:56PM EDT


 

Airport Tracker/Info


-or-


 

Live Flight TrackerFlight Track Log ✈ ASQ4252 ✈ 21-Jul-2013 ✈ KIAH - KMSY

Flight Track Log - Related Links

Times and Time Zones

All times are in EDT time to prevent confusion due to time zone crossing. See the ASQ4252 flight status page for this flight to view local times or setup timezone preferences in your user account.

Time Position Orientation Groundspeed Altitude Reporting Facility
EDT Latitude Longitude Course Direction KTS MPH feet Rate Location/Type
04:21PM 29.9617 -95.3436 95° East 162 186 600  Level Houston Center
04:22PM 29.9072 -95.2756 133° Southeast 254 292 2,800 1,380 Climbing Houston Center
04:23PM 29.8619 -95.2183 132° Southeast 264 304 3,800 1,560 Climbing Houston Center
04:24PM 29.9311 -94.9962 97° East  Level FlightAware Approximate
04:24PM 29.8117 -95.1522 131° Southeast 275 316 5,900  Level Houston Center
04:25PM 29.9185 -94.8829 97° East  Level FlightAware Approximate
04:25PM 29.7928 -95.1142 120° Southeast 285 328 7,000  Level Houston Center
04:25PM 29.7931 -95.0653 90° East 309 356 8,400 2,340 Climbing Houston Center
04:26PM 29.9086 -94.7694 95° East  Level FlightAware Approximate
04:26PM 29.7983 -95.0167 83° East 305 351 9,500  Level Houston Center
04:27PM 29.8047 -94.9117 86° East 325 374 10,600 1,260 Climbing Houston Center
04:28PM 29.8158 -94.8036 83° East 360 414 12,200 1,560 Climbing Houston Center
04:29PM 29.8289 -94.6756 83° East 373 429 13,900 1,560 Climbing Houston Center
04:30PM 29.8406 -94.5539 84° East 381 438 15,500 1,560 Climbing Houston Center
04:31PM 29.8522 -94.4319 84° East 383 441 17,200 1,680 Climbing Houston Center
04:32PM 29.8628 -94.2886 85° East 376 433 19,000 1,500 Climbing Houston Center
04:33PM 29.8572 -94.1681 93° East 376 433 20,300 1,140 Climbing Houston Center
04:34PM 29.8539 -94.0581 92° East 380 437 21,400 1,200 Climbing Houston Center
04:35PM 29.8656 -93.9111 85° East 389 448 22,800 720 Climbing Houston Center
04:36PM 29.8778 -93.7858 84° East 397 457 23,000 60 Climbing Houston Center
04:37PM 29.8797 -93.6547 89° East 414 476 23,000  Level Houston Center
04:38PM 29.8589 -93.5264 101° East 413 475 23,000  Level Houston Center
04:39PM 29.8728 -93.3908 83° East 429 494 23,000  Level Houston Center
04:40PM 29.8908 -93.2228 83° East 444 511 23,000  Level Houston Center
04:41PM 29.9067 -93.0811 83° East 449 517 23,000  Level Houston Center
04:42PM 29.9217 -92.9383 83° East 453 521 23,000  Level Houston Center
04:43PM 29.9369 -92.7967 83° East 448 516 23,000  Level Houston Center
04:44PM 29.9508 -92.6536 84° East 451 519 23,000  Level Houston Center
04:45PM 29.9683 -92.4814 83° East 453 521 23,000  Level Houston Center
04:46PM 29.9836 -92.3367 83° East 455 524 23,000  Level Houston Center
04:48PM 29.9978 -92.1917 84° East 456 525 23,000 -120 Level Houston Center
04:49PM 30.0119 -92.0483 83° East 454 522 22,800 -720 Descending Houston Center
04:50PM 30.0258 -91.9072 83° East 448 516 21,600 -1,020 Descending Houston Center
04:51PM 30.0411 -91.7678 83° East 442 509 20,700 -1,140 Descending Houston Center
04:52PM 30.0544 -91.6261 84° East 430 495 19,300 -1,560 Descending Houston Center
04:53PM 30.0678 -91.4928 83° East 420 483 17,500 -2,280 Descending Houston Center
04:54PM 30.0817 -91.3397 84° East 401 461 14,700 -2,340 Descending Houston Center
04:55PM 30.0931 -91.2156 84° East 392 451 12,700 -1,800 Descending Houston Center
04:55PM 30.1000 -91.1308 85° East 397 457 11,700 -1,080 Descending Houston Center
04:56PM 30.1117 -91.0103 84° East 379 436 11,000 -840 Descending Houston Center
04:57PM 30.1114 -90.9094 90° East 297 342 10,100 -1,380 Descending Houston Center
04:58PM 30.0983 -90.8136 99° East 297 342 8,300 -1,680 Descending Houston Center
04:59PM 30.0831 -90.7108 100° East 302 348 6,800 -1,500 Descending Houston Center
05:00PM 30.0703 -90.6178 99° East 295 339 5,300 -1,440 Descending Houston Center
05:01PM 30.0664 -90.5789 97° East 296 341 4,600 -1,320 Descending Houston Center
05:01PM 30.0553 -90.5294 105° East 285 328 4,000 -1,260 Descending Houston Center
05:02PM 30.0489 -90.4906 101° East 289 333 3,300 -1,320 Descending Houston Center